createdAt,value
2019-04-05T00:00:07.488Z,8.00
2019-04-05T00:02:35.932Z,7.90
2019-04-05T00:05:06.501Z,8.00
2019-04-05T00:07:35.006Z,7.80
2019-04-05T00:10:04.412Z,7.90
2019-04-05T00:12:32.851Z,7.90
2019-04-05T00:15:14.266Z,7.90
2019-04-05T00:17:31.435Z,8.00
2019-04-05T00:19:59.869Z,8.00
2019-04-05T00:22:28.326Z,9.00
2019-04-05T00:24:56.748Z,8.40
2019-04-05T00:27:25.195Z,7.90
2019-04-05T00:29:53.623Z,7.70
2019-04-05T00:32:22.063Z,7.60
2019-04-05T00:34:50.517Z,7.60
2019-04-05T00:37:18.969Z,7.60
2019-04-05T00:39:47.395Z,7.60
2019-04-05T00:42:15.880Z,7.70
2019-04-05T00:44:44.309Z,7.80
2019-04-05T00:47:12.760Z,7.90
2019-04-05T00:49:41.188Z,7.70
2019-04-05T00:52:09.626Z,7.80
2019-04-05T00:54:38.123Z,7.80
2019-04-05T00:57:06.616Z,7.80
2019-04-05T00:59:35.151Z,7.90
2019-04-05T01:02:03.762Z,7.80
2019-04-05T01:04:32.199Z,7.70
2019-04-05T01:07:00.634Z,7.70
2019-04-05T01:09:29.067Z,7.80
2019-04-05T01:11:57.503Z,7.90
2019-04-05T01:17:54.804Z,7.60
2019-04-05T01:20:24.880Z,7.80
2019-04-05T01:22:53.967Z,7.80
2019-04-05T01:25:22.667Z,7.80
2019-04-05T01:27:51.181Z,7.80
2019-04-05T01:30:19.788Z,7.70
2019-04-05T01:32:48.232Z,7.60
2019-04-05T01:35:16.675Z,7.60
2019-04-05T01:37:45.871Z,7.70
2019-04-05T01:40:14.635Z,7.70
2019-04-05T01:42:43.670Z,7.70
2019-04-05T01:45:13.439Z,7.70
2019-04-05T01:47:41.871Z,7.80
2019-04-05T01:50:10.937Z,7.80
2019-04-05T01:52:39.718Z,7.80
2019-04-05T01:55:09.216Z,7.80
2019-04-05T01:57:37.660Z,7.80
2019-04-05T02:00:09.180Z,7.90
2019-04-05T02:02:37.601Z,7.90
2019-04-05T02:05:08.156Z,7.90
2019-04-05T02:07:37.438Z,7.90
2019-04-05T02:10:08.369Z,8.00
2019-04-05T02:12:37.000Z,8.00
2019-04-05T02:15:09.521Z,7.90
2019-04-05T02:17:38.287Z,8.00
2019-04-05T02:20:08.570Z,7.90
2019-04-05T02:22:37.060Z,8.00
2019-04-05T02:25:06.859Z,7.80
2019-04-05T02:27:35.350Z,7.80
2019-04-05T02:30:05.767Z,7.80
2019-04-05T02:32:34.202Z,7.80
2019-04-05T02:35:02.699Z,7.90
2019-04-05T02:37:31.130Z,7.90
2019-04-05T02:39:59.567Z,8.00
2019-04-05T02:42:29.239Z,7.90
2019-04-05T02:44:58.209Z,7.80
2019-04-05T02:47:26.884Z,7.80
2019-04-05T02:49:57.076Z,7.80
2019-04-05T02:52:26.767Z,7.70
2019-04-05T02:54:55.643Z,7.70
2019-04-05T02:57:24.541Z,7.80
2019-04-05T02:59:54.023Z,7.80
2019-04-05T03:02:22.829Z,7.70
2019-04-05T03:04:51.349Z,7.80
2019-04-05T03:07:19.838Z,7.40
2019-04-05T03:09:49.040Z,7.40
2019-04-05T03:12:19.240Z,7.50
2019-04-05T03:14:48.110Z,7.60
2019-04-05T03:17:17.328Z,7.60
2019-04-05T03:19:47.053Z,7.60
2019-04-05T03:22:15.928Z,7.50
2019-04-05T03:24:46.167Z,7.40
2019-04-05T03:27:17.955Z,7.50
2019-04-05T03:29:46.766Z,7.60
2019-04-05T03:32:15.735Z,7.60
2019-04-05T03:34:44.420Z,7.60
2019-04-05T03:37:13.535Z,7.60
2019-04-05T03:39:42.663Z,7.70
2019-04-05T03:42:11.517Z,7.80
2019-04-05T03:44:40.138Z,7.70
2019-04-05T03:47:09.012Z,9.00
2019-04-05T03:49:37.551Z,8.40
2019-04-05T03:52:06.376Z,8.10
2019-04-05T03:54:35.163Z,7.90
2019-04-05T03:57:04.267Z,6.90
2019-04-05T03:59:32.772Z,6.40
2019-04-05T04:02:01.323Z,6.30
2019-04-05T04:04:30.287Z,6.10
2019-04-05T04:06:58.808Z,6.20
2019-04-05T04:09:27.467Z,6.20
2019-04-05T04:11:55.977Z,6.20
2019-04-05T04:14:24.487Z,6.10
2019-04-05T04:16:53.570Z,6.20
2019-04-05T04:19:22.151Z,6.10
2019-04-05T04:21:59.208Z,6.00
2019-04-05T04:24:27.714Z,5.90
2019-04-05T04:26:56.591Z,5.90
2019-04-05T04:29:25.025Z,6.00
2019-04-05T04:31:53.711Z,6.10
2019-04-05T04:34:22.353Z,6.10
2019-04-05T04:36:51.082Z,6.10
2019-04-05T04:39:20.520Z,6.00
2019-04-05T04:41:49.531Z,6.00
2019-04-05T04:44:18.906Z,6.00
2019-04-05T04:46:48.233Z,6.10
2019-04-05T04:49:16.984Z,6.10
2019-04-05T04:51:45.863Z,5.90
2019-04-05T04:54:14.536Z,6.00
2019-04-05T04:56:43.120Z,6.00
2019-04-05T04:59:11.631Z,6.00
2019-04-05T05:01:40.323Z,6.10
2019-04-05T05:04:09.014Z,6.10
2019-04-05T05:06:37.720Z,6.20
2019-04-05T05:09:07.506Z,6.10
2019-04-05T05:11:36.415Z,6.00
2019-04-05T05:14:05.014Z,6.00
2019-04-05T05:16:33.617Z,6.00
2019-04-05T05:19:02.096Z,6.20
2019-04-05T05:21:30.635Z,6.20
2019-04-05T05:23:59.414Z,6.20
2019-04-05T05:26:28.089Z,6.30
2019-04-05T05:28:56.870Z,6.20
2019-04-05T05:31:25.539Z,6.20
2019-04-05T05:33:54.165Z,6.20
2019-04-05T05:36:22.849Z,6.20
2019-04-05T05:38:51.434Z,6.10
2019-04-05T05:41:19.876Z,6.10
2019-04-05T05:43:48.410Z,5.90
2019-04-05T05:46:16.851Z,6.00
2019-04-05T05:48:45.300Z,6.00
2019-04-05T05:51:14.576Z,6.10
2019-04-05T05:53:43.391Z,6.10
2019-04-05T05:56:11.822Z,5.90
2019-04-05T05:58:40.348Z,5.80
2019-04-05T06:01:08.810Z,5.90
2019-04-05T06:03:37.239Z,6.00
2019-04-05T06:06:05.691Z,6.00
2019-04-05T06:08:34.143Z,6.00
2019-04-05T06:11:02.944Z,6.10
2019-04-05T06:13:31.382Z,6.00
2019-04-05T06:15:59.841Z,6.10
2019-04-05T06:18:28.278Z,6.20
2019-04-05T06:20:56.720Z,6.30
2019-04-05T06:23:33.734Z,6.20
2019-04-05T06:25:55.337Z,6.30
2019-04-05T06:28:23.787Z,6.30
2019-04-05T06:30:52.297Z,6.20
2019-04-05T06:33:30.926Z,6.30
2019-04-05T06:35:50.884Z,6.30
2019-04-05T06:38:19.335Z,6.30
2019-04-05T06:40:47.782Z,6.40
2019-04-05T06:43:16.285Z,6.40
2019-04-05T06:45:45.692Z,6.40
2019-04-05T06:48:19.350Z,6.40
2019-04-05T06:50:47.152Z,6.30
2019-04-05T06:53:14.530Z,6.40
2019-04-05T06:55:42.951Z,6.50
2019-04-05T06:58:11.394Z,6.50
2019-04-05T07:00:39.830Z,6.40
2019-04-05T07:03:08.444Z,6.40
2019-04-05T07:05:36.949Z,6.30
2019-04-05T07:08:05.406Z,6.40
2019-04-05T07:10:33.876Z,6.40
2019-04-05T07:13:02.452Z,6.40
2019-04-05T07:15:30.972Z,6.40
2019-04-05T07:17:59.490Z,6.40
2019-04-05T07:20:27.932Z,6.50
2019-04-05T07:22:56.380Z,6.60
2019-04-05T07:25:24.824Z,6.60
2019-04-05T07:27:53.292Z,6.60
2019-04-05T07:30:21.877Z,6.60
2019-04-05T07:32:50.318Z,6.60
2019-04-05T07:35:18.751Z,6.70
2019-04-05T07:37:47.203Z,6.70
2019-04-05T07:40:16.763Z,6.60
2019-04-05T07:42:45.294Z,6.80
2019-04-05T07:45:14.014Z,6.90
2019-04-05T07:47:42.450Z,6.80
2019-04-05T07:50:10.908Z,6.80
2019-04-05T07:52:39.334Z,6.70
2019-04-05T07:55:07.986Z,6.70
2019-04-05T07:57:37.287Z,6.70
2019-04-05T08:00:27.983Z,6.70
2019-04-05T08:02:56.441Z,6.90
2019-04-05T08:05:24.869Z,6.80
2019-04-05T08:07:54.248Z,6.90
2019-04-05T08:10:22.944Z,6.90
2019-04-05T08:12:51.943Z,6.90
2019-04-05T08:15:20.376Z,6.90
2019-04-05T08:17:48.803Z,6.90
2019-04-05T08:20:17.269Z,7.00
2019-04-05T08:22:45.715Z,7.00
2019-04-05T08:25:14.184Z,6.90
2019-04-05T08:27:42.633Z,6.80
2019-04-05T08:30:11.132Z,6.80
2019-04-05T08:32:39.557Z,6.90
2019-04-05T08:35:08.080Z,6.90
2019-04-05T08:37:36.518Z,7.10
2019-04-05T08:40:06.504Z,7.00
2019-04-05T08:42:34.940Z,7.10
2019-04-05T08:45:03.557Z,7.10
2019-04-05T08:47:32.967Z,7.00
2019-04-05T08:50:01.412Z,7.10
2019-04-05T08:52:29.866Z,7.20
2019-04-05T08:54:58.367Z,7.30
2019-04-05T08:57:26.801Z,7.20
2019-04-05T08:59:55.259Z,7.20
2019-04-05T09:02:23.688Z,7.10
2019-04-05T09:04:52.163Z,7.10
2019-04-05T09:07:20.600Z,7.10
2019-04-05T09:09:49.060Z,7.20
2019-04-05T09:12:17.512Z,7.10
2019-04-05T09:14:46.035Z,7.20
2019-04-05T09:17:14.482Z,7.20
2019-04-05T09:19:42.918Z,7.30
2019-04-05T09:22:11.344Z,7.30
2019-04-05T09:24:39.807Z,7.30
2019-04-05T09:27:08.234Z,7.30
2019-04-05T09:29:36.680Z,7.40
2019-04-05T09:32:05.191Z,7.40
2019-04-05T09:34:33.634Z,7.40
2019-04-05T09:37:03.147Z,7.60
2019-04-05T09:39:31.595Z,7.40
2019-04-05T09:42:00.045Z,7.50
2019-04-05T09:44:28.547Z,7.60
2019-04-05T09:46:56.988Z,7.70
2019-04-05T09:49:36.244Z,7.70
2019-04-05T09:51:55.585Z,7.70
2019-04-05T09:54:24.034Z,7.50
2019-04-05T09:56:52.628Z,7.50
2019-04-05T09:59:21.063Z,7.60
2019-04-05T10:01:49.518Z,7.60
2019-04-05T10:04:18.031Z,7.70
2019-04-05T10:06:46.477Z,7.60
2019-04-05T10:09:14.999Z,7.40
2019-04-05T10:11:43.448Z,7.20
2019-04-05T10:14:11.878Z,7.50
2019-04-05T10:16:40.339Z,7.70
2019-04-05T10:19:08.796Z,8.00
2019-04-05T10:21:37.311Z,8.00
2019-04-05T10:24:05.830Z,8.10
2019-04-05T10:26:34.291Z,8.20
2019-04-05T10:29:02.737Z,8.30
2019-04-05T10:31:31.193Z,8.30
2019-04-05T10:33:59.644Z,8.30
2019-04-05T10:36:28.092Z,8.30
2019-04-05T10:38:56.516Z,8.10
2019-04-05T10:41:24.983Z,7.90
2019-04-05T10:43:53.407Z,7.80
2019-04-05T10:46:21.860Z,7.50
2019-04-05T10:48:50.297Z,7.50
2019-04-05T10:51:18.754Z,7.70
2019-04-05T10:53:47.197Z,7.80
2019-04-05T10:56:15.633Z,7.80
2019-04-05T10:58:44.152Z,7.70
2019-04-05T11:01:12.584Z,7.80
2019-04-05T11:03:41.041Z,7.70
2019-04-05T11:06:09.541Z,7.80
2019-04-05T11:08:38.075Z,8.10
2019-04-05T11:11:06.524Z,7.70
2019-04-05T11:13:34.961Z,7.70
2019-04-05T11:16:04.222Z,8.00
2019-04-05T11:18:33.556Z,8.00
2019-04-05T11:21:02.083Z,8.10
2019-04-05T11:23:30.535Z,8.10
2019-04-05T11:25:58.986Z,8.10
2019-04-05T11:28:27.440Z,8.30
2019-04-05T11:30:55.877Z,8.50
2019-04-05T11:33:24.400Z,8.30
2019-04-05T11:35:52.849Z,8.20
2019-04-05T11:38:24.239Z,8.20
2019-04-05T11:40:52.732Z,8.40
2019-04-05T11:43:26.205Z,8.70
2019-04-05T11:45:53.716Z,8.60
2019-04-05T11:48:22.384Z,8.80
2019-04-05T11:50:50.817Z,8.70
2019-04-05T11:53:21.890Z,8.80
2019-04-05T11:55:49.427Z,8.50
2019-04-05T11:58:17.863Z,8.30
2019-04-05T12:00:50.645Z,8.30
2019-04-05T12:03:20.724Z,8.20
2019-04-05T12:05:49.174Z,8.40
2019-04-05T12:08:17.609Z,8.40
2019-04-05T12:10:46.060Z,8.60
2019-04-05T12:13:14.495Z,8.70
2019-04-05T12:15:42.948Z,8.80
2019-04-05T12:18:11.382Z,8.50
2019-04-05T12:20:49.550Z,8.70
2019-04-05T12:23:10.073Z,8.80
2019-04-05T12:25:38.515Z,8.70
2019-04-05T12:28:10.436Z,8.70
2019-04-05T12:30:38.304Z,8.70
2019-04-05T12:33:14.031Z,8.90
2019-04-05T12:35:37.681Z,9.10
2019-04-05T12:38:07.156Z,9.30
2019-04-05T12:40:35.658Z,9.50
2019-04-05T12:43:04.102Z,9.50
2019-04-05T12:45:32.543Z,9.20
2019-04-05T12:48:00.974Z,9.30
2019-04-05T12:50:29.439Z,9.40
2019-04-05T12:52:57.882Z,9.30
2019-04-05T12:55:26.356Z,9.40
2019-04-05T12:57:56.222Z,9.30
2019-04-05T13:00:25.950Z,9.40
2019-04-05T13:02:56.967Z,9.40
2019-04-05T13:05:25.113Z,9.30
2019-04-05T13:07:53.564Z,9.30
2019-04-05T13:10:25.165Z,9.10
2019-04-05T13:12:52.234Z,9.30
2019-04-05T13:15:20.679Z,9.40
2019-04-05T13:17:49.124Z,9.30
2019-04-05T13:20:17.827Z,9.30
2019-04-05T13:22:46.252Z,9.30
2019-04-05T13:25:14.773Z,9.40
2019-04-05T13:27:43.212Z,9.40
2019-04-05T13:30:12.307Z,9.30
2019-04-05T13:32:40.753Z,9.40
2019-04-05T13:35:09.435Z,9.20
2019-04-05T13:37:37.932Z,9.20
2019-04-05T13:40:09.598Z,9.20
2019-04-05T13:42:38.167Z,9.10
2019-04-05T13:45:08.195Z,9.10
2019-04-05T13:47:38.850Z,8.90
2019-04-05T13:50:10.839Z,8.80
2019-04-05T13:52:41.456Z,8.90
2019-04-05T13:55:10.466Z,8.80
2019-04-05T13:57:38.429Z,8.90
2019-04-05T14:00:10.122Z,8.90
2019-04-05T14:02:38.563Z,8.80
2019-04-05T14:05:07.315Z,8.90
2019-04-05T14:07:35.799Z,8.80
2019-04-05T14:10:10.534Z,8.80
2019-04-05T14:12:40.299Z,8.90
2019-04-05T14:15:10.683Z,8.90
2019-04-05T14:17:38.623Z,9.00
2019-04-05T14:20:09.071Z,8.80
2019-04-05T14:22:37.890Z,8.80
2019-04-05T14:25:08.102Z,8.90
2019-04-05T14:27:36.599Z,8.80
2019-04-05T14:30:06.677Z,8.90
2019-04-05T14:32:35.128Z,8.90
2019-04-05T14:35:07.552Z,8.90
2019-04-05T14:37:34.927Z,8.70
2019-04-05T14:40:05.225Z,8.80
2019-04-05T14:42:33.653Z,8.80
2019-04-05T14:45:02.080Z,8.80
2019-04-05T14:47:30.536Z,8.70
2019-04-05T14:50:00.910Z,8.60
2019-04-05T14:52:31.227Z,8.80
2019-04-05T14:55:00.098Z,8.70
2019-04-05T14:57:29.029Z,8.80
2019-04-05T14:59:57.470Z,8.80
2019-04-05T15:02:25.937Z,8.90
2019-04-05T15:04:54.373Z,8.90
2019-04-05T15:07:22.844Z,8.80
2019-04-05T15:09:54.776Z,8.70
2019-04-05T15:12:21.515Z,8.80
2019-04-05T15:14:49.930Z,8.70
2019-04-05T15:17:18.400Z,8.80
2019-04-05T15:19:46.833Z,8.80
2019-04-05T15:22:15.298Z,8.80
2019-04-05T15:24:44.581Z,8.90
2019-04-05T15:27:13.955Z,8.90
2019-04-05T15:29:42.405Z,8.90
2019-04-05T15:32:10.947Z,8.80
2019-04-05T15:34:39.449Z,8.90
2019-04-05T15:37:07.896Z,9.00
2019-04-05T15:39:36.319Z,9.00
2019-04-05T15:42:04.899Z,8.90
2019-04-05T15:44:33.341Z,8.90
2019-04-05T15:47:01.800Z,9.00
2019-04-05T15:49:30.247Z,8.80
2019-04-05T15:51:58.995Z,8.80
2019-04-05T15:54:29.064Z,9.00
2019-04-05T15:56:57.766Z,8.90
2019-04-05T15:59:26.198Z,8.90
2019-04-05T16:01:54.711Z,8.90
2019-04-05T16:04:23.593Z,8.90
2019-04-05T16:06:52.045Z,8.90
2019-04-05T16:09:20.955Z,8.80
2019-04-05T16:11:49.410Z,8.80
2019-04-05T16:14:17.863Z,8.80
2019-04-05T16:16:46.307Z,8.80
2019-04-05T16:19:14.743Z,8.80
2019-04-05T16:21:43.204Z,8.80
2019-04-05T16:24:11.643Z,8.90
2019-04-05T16:26:40.094Z,8.70
2019-04-05T16:29:08.519Z,8.80
2019-04-05T16:31:36.986Z,8.80
2019-04-05T16:34:05.994Z,8.80
2019-04-05T16:36:34.455Z,8.90
2019-04-05T16:39:04.616Z,8.80
2019-04-05T16:41:33.065Z,8.90
2019-04-05T16:44:01.505Z,8.90
2019-04-05T16:46:29.932Z,8.90
2019-04-05T16:48:58.394Z,8.90
2019-04-05T16:51:26.897Z,9.00
2019-04-05T16:53:59.157Z,9.10
2019-04-05T16:56:27.938Z,9.00
2019-04-05T16:58:57.059Z,9.00
2019-04-05T17:01:27.420Z,9.00
2019-04-05T17:03:56.805Z,9.00
2019-04-05T17:06:25.249Z,9.00
2019-04-05T17:08:53.686Z,9.10
2019-04-05T17:11:22.120Z,9.20
2019-04-05T17:13:50.572Z,9.20
2019-04-05T17:16:19.038Z,9.20
2019-04-05T17:18:47.483Z,9.20
2019-04-05T17:21:16.898Z,9.30
2019-04-05T17:23:45.359Z,9.40
2019-04-05T17:26:13.807Z,9.40
2019-04-05T17:28:42.251Z,9.30
2019-04-05T17:31:10.687Z,9.40
2019-04-05T17:33:39.232Z,9.20
2019-04-05T17:36:07.685Z,9.10
2019-04-05T17:38:36.139Z,9.10
2019-04-05T17:41:04.580Z,9.20
2019-04-05T17:43:33.031Z,9.10
2019-04-05T17:46:01.455Z,9.00
2019-04-05T17:48:29.906Z,9.20
2019-04-05T17:50:58.343Z,9.40
2019-04-05T17:53:26.802Z,9.40
2019-04-05T17:55:55.577Z,9.20
2019-04-05T17:58:26.662Z,9.40
2019-04-05T18:00:55.108Z,9.40
2019-04-05T18:03:23.668Z,9.40
2019-04-05T18:05:52.153Z,9.30
2019-04-05T18:08:20.613Z,9.30
2019-04-05T18:10:49.041Z,9.30
2019-04-05T18:13:17.499Z,9.30
2019-04-05T18:15:52.396Z,9.30
2019-04-05T18:18:16.106Z,9.30
2019-04-05T18:20:44.570Z,9.30
2019-04-05T18:23:24.430Z,9.30
2019-04-05T18:25:43.242Z,9.10
2019-04-05T18:28:11.705Z,8.90
2019-04-05T18:30:40.157Z,9.60
2019-04-05T18:33:08.616Z,10.40
2019-04-05T18:35:37.065Z,10.50
2019-04-05T18:38:05.504Z,10.40
2019-04-05T18:40:39.846Z,10.30
2019-04-05T18:43:04.307Z,10.40
2019-04-05T18:45:33.699Z,10.40
2019-04-05T18:48:02.303Z,10.30
2019-04-05T18:50:30.881Z,10.50
2019-04-05T18:52:59.341Z,10.40
2019-04-05T18:55:27.867Z,10.30
2019-04-05T18:57:56.309Z,10.30
2019-04-05T19:00:25.683Z,10.40
2019-04-05T19:02:54.131Z,10.20
2019-04-05T19:05:22.570Z,10.30
2019-04-05T19:07:51.004Z,10.10
2019-04-05T19:10:19.468Z,9.70
2019-04-05T19:12:47.966Z,9.50
2019-04-05T19:15:16.606Z,9.30
2019-04-05T19:17:45.097Z,9.40
2019-04-05T19:20:13.681Z,9.60
2019-04-05T19:22:42.122Z,9.80
2019-04-05T19:25:10.646Z,9.90
2019-04-05T19:27:39.089Z,10.00
2019-04-05T19:50:10.421Z,10.50
2019-04-05T19:52:38.865Z,10.50
2019-04-05T19:55:07.789Z,10.50
2019-04-05T19:57:36.219Z,9.50
2019-04-05T20:00:06.995Z,9.60
2019-04-05T20:02:35.449Z,11.50
2019-04-05T20:05:05.825Z,10.60
2019-04-05T20:07:34.257Z,10.00
2019-04-05T20:10:02.710Z,10.20
2019-04-05T20:12:31.159Z,10.10
2019-04-05T20:14:59.626Z,10.20
2019-04-05T20:17:28.066Z,10.40
2019-04-05T20:19:56.518Z,10.50
2019-04-05T20:22:25.019Z,10.40
2019-04-05T20:24:53.468Z,10.40
2019-04-05T20:27:21.915Z,10.40
2019-04-05T20:29:50.382Z,10.30
2019-04-05T20:32:18.810Z,10.40
2019-04-05T20:34:47.256Z,10.40
2019-04-05T20:37:15.699Z,10.30
2019-04-05T20:39:44.143Z,10.10
2019-04-05T20:42:12.591Z,10.00
2019-04-05T20:44:41.048Z,10.00
2019-04-05T20:47:09.554Z,10.10
2019-04-05T20:49:38.033Z,10.20
2019-04-05T20:52:06.489Z,10.20
2019-04-05T20:54:34.948Z,10.20
2019-04-05T20:57:03.397Z,10.20
2019-04-05T20:59:31.844Z,10.20
2019-04-05T21:02:00.308Z,10.30
2019-04-05T21:04:28.733Z,10.30
2019-04-05T21:06:57.186Z,10.40
2019-04-05T21:09:25.614Z,10.30
2019-04-05T21:11:54.075Z,10.30
2019-04-05T21:14:22.510Z,10.10
2019-04-05T21:16:50.959Z,10.10
2019-04-05T21:19:19.414Z,10.20
2019-04-05T21:21:47.929Z,10.30
2019-04-05T21:24:16.368Z,10.30
2019-04-05T21:26:44.831Z,10.30
2019-04-05T21:29:13.306Z,10.40
2019-04-05T21:31:41.753Z,10.40
2019-04-05T21:34:10.244Z,10.40
2019-04-05T21:36:38.697Z,10.40
2019-04-05T21:39:07.875Z,10.40
2019-04-05T21:41:36.307Z,10.50
2019-04-05T21:44:04.848Z,10.40
2019-04-05T21:46:34.130Z,10.40
2019-04-05T21:49:02.585Z,10.40
2019-04-05T21:51:31.702Z,10.40
2019-04-05T21:54:00.173Z,10.30
2019-04-05T21:56:28.673Z,10.40
2019-04-05T21:58:57.233Z,10.40
2019-04-05T22:01:27.008Z,10.50
2019-04-05T22:03:55.633Z,10.40
2019-04-05T22:06:24.127Z,10.50
2019-04-05T22:08:52.582Z,10.50
2019-04-05T22:11:21.026Z,10.50
2019-04-05T22:13:49.481Z,10.50
2019-04-05T22:16:17.903Z,10.50
2019-04-05T22:18:46.368Z,10.40
2019-04-05T22:21:14.801Z,10.40
2019-04-05T22:23:43.251Z,10.40
2019-04-05T22:26:11.683Z,10.40
2019-04-05T22:28:40.190Z,10.40
2019-04-05T22:31:08.668Z,10.50
2019-04-05T22:33:37.281Z,10.50
2019-04-05T22:36:05.702Z,10.50
2019-04-05T22:38:34.166Z,10.40
2019-04-05T22:41:02.613Z,11.60
2019-04-05T22:43:31.071Z,10.90
2019-04-05T22:45:59.514Z,10.60
2019-04-05T22:48:27.968Z,10.40
2019-04-05T22:50:56.407Z,10.30
2019-04-05T22:53:24.867Z,10.10
2019-04-05T22:55:53.312Z,10.20
2019-04-05T22:58:21.809Z,10.20
2019-04-05T23:00:50.261Z,10.20
2019-04-05T23:03:18.719Z,10.50
2019-04-05T23:05:47.160Z,10.50
2019-04-05T23:08:15.615Z,10.40
2019-04-05T23:10:44.056Z,10.40
2019-04-05T23:13:12.511Z,10.30
2019-04-05T23:15:40.935Z,10.30
2019-04-05T23:18:09.397Z,10.30
2019-04-05T23:20:37.830Z,10.40
2019-04-05T23:23:06.292Z,10.50
2019-04-05T23:25:34.812Z,10.50
2019-04-05T23:28:03.268Z,10.50
2019-04-05T23:30:33.329Z,10.50
2019-04-05T23:33:01.808Z,10.50
2019-04-05T23:35:30.244Z,10.50
2019-04-05T23:37:58.687Z,10.40
2019-04-05T23:40:27.218Z,10.40
2019-04-05T23:42:55.760Z,10.50
2019-04-05T23:45:24.214Z,10.40
2019-04-05T23:47:52.647Z,10.40
2019-04-05T23:50:21.114Z,10.20
2019-04-05T23:52:49.555Z,10.10
2019-04-05T23:55:18.026Z,10.20
2019-04-05T23:57:46.459Z,10.20
